createdAt,value
2023-03-13T00:01:55.907Z,13.04
2023-03-13T00:04:57.999Z,13.14
2023-03-13T00:08:00.121Z,12.97
2023-03-13T00:11:06.775Z,12.98
2023-03-13T00:14:09.315Z,12.93
2023-03-13T00:17:11.385Z,13.17
2023-03-13T00:20:13.619Z,13.17
2023-03-13T00:23:15.688Z,13.05
2023-03-13T00:26:21.006Z,13.06
2023-03-13T00:29:23.004Z,13.27
2023-03-13T00:32:25.415Z,13.23
2023-03-13T00:35:27.596Z,13.08
2023-03-13T00:38:30.588Z,12.98
2023-03-13T00:41:33.578Z,13.03
2023-03-13T00:44:35.789Z,13.16
2023-03-13T00:47:37.892Z,13.06
2023-03-13T00:50:40.063Z,12.98
2023-03-13T00:53:42.585Z,13.07
2023-03-13T00:56:45.252Z,13.07
2023-03-13T00:59:47.326Z,13.04
2023-03-13T01:02:49.714Z,13.12
2023-03-13T01:05:59.314Z,12.89
2023-03-13T01:09:02.528Z,12.53
2023-03-13T01:12:04.679Z,12.53
2023-03-13T01:15:07.323Z,12.84
2023-03-13T01:18:09.382Z,12.97
2023-03-13T01:21:13.002Z,13.01
2023-03-13T01:24:17.054Z,13.06
2023-03-13T01:27:19.636Z,12.85
2023-03-13T01:30:21.760Z,12.83
2023-03-13T01:33:24.495Z,12.77
2023-03-13T01:36:27.505Z,12.81
2023-03-13T01:39:29.560Z,12.89
2023-03-13T01:42:48.715Z,12.65
2023-03-13T01:45:56.735Z,12.89
2023-03-13T01:49:19.884Z,12.81
2023-03-13T01:52:48.362Z,12.70
2023-03-13T01:55:57.602Z,12.80
2023-03-13T01:59:00.680Z,12.76
2023-03-13T02:02:04.753Z,12.85
2023-03-13T02:05:07.790Z,12.73
2023-03-13T02:08:19.182Z,12.82
2023-03-13T02:11:31.797Z,12.68
2023-03-13T02:14:37.122Z,12.68
2023-03-13T02:17:41.414Z,12.55
2023-03-13T02:20:43.687Z,12.49
2023-03-13T02:23:57.323Z,12.56
2023-03-13T02:26:59.513Z,12.47
2023-03-13T02:30:02.601Z,12.44
2023-03-13T02:33:05.228Z,12.59
2023-03-13T02:36:10.041Z,12.64
2023-03-13T02:39:14.628Z,12.64
2023-03-13T02:42:19.786Z,12.58
2023-03-13T02:45:22.808Z,12.58
2023-03-13T02:48:34.664Z,12.65
2023-03-13T02:51:42.244Z,12.48
2023-03-13T02:54:49.493Z,12.51
2023-03-13T02:57:51.996Z,12.44
2023-03-13T03:00:54.403Z,12.51
2023-03-13T03:03:57.388Z,12.50
2023-03-13T03:06:59.948Z,12.51
2023-03-13T03:10:03.782Z,12.48
2023-03-13T03:13:05.822Z,12.36
2023-03-13T03:16:09.902Z,12.48
2023-03-13T03:19:12.906Z,12.38
2023-03-13T03:22:15.027Z,12.44
2023-03-13T03:25:17.141Z,12.42
2023-03-13T03:28:19.786Z,12.35
2023-03-13T03:31:22.112Z,12.30
2023-03-13T03:34:24.792Z,12.23
2023-03-13T03:37:27.426Z,12.23
2023-03-13T03:40:30.395Z,12.19
2023-03-13T03:43:32.572Z,12.22
2023-03-13T03:46:35.616Z,12.21
2023-03-13T03:49:37.727Z,12.08
2023-03-13T03:52:40.322Z,12.25
2023-03-13T03:55:42.775Z,12.13
2023-03-13T03:58:46.727Z,12.17
2023-03-13T04:01:54.120Z,12.28
2023-03-13T04:04:59.184Z,12.19
2023-03-13T04:08:08.319Z,12.15
2023-03-13T04:11:10.453Z,12.15
2023-03-13T04:14:15.712Z,12.02
2023-03-13T04:17:18.707Z,12.02
2023-03-13T04:20:22.456Z,12.13
2023-03-13T04:23:24.664Z,12.15
2023-03-13T04:26:27.314Z,12.14
2023-03-13T04:29:31.381Z,12.12
2023-03-13T04:32:59.592Z,12.15
2023-03-13T04:36:18.172Z,12.09
2023-03-13T04:39:39.144Z,12.05
2023-03-13T04:43:13.482Z,12.12
2023-03-13T04:46:47.990Z,12.10
2023-03-13T04:50:14.488Z,12.16
2023-03-13T04:53:22.163Z,12.21
2023-03-13T04:56:42.310Z,12.35
2023-03-13T04:59:54.206Z,12.31
2023-03-13T05:03:12.389Z,12.18
2023-03-13T05:06:44.631Z,12.41
2023-03-13T05:10:06.293Z,12.39
2023-03-13T05:13:11.408Z,12.33
2023-03-13T05:16:51.653Z,12.13
2023-03-13T05:20:12.710Z,12.17
2023-03-13T05:23:46.910Z,11.99
2023-03-13T05:27:09.145Z,11.92
2023-03-13T05:30:20.506Z,11.88
2023-03-13T05:33:48.791Z,11.97
2023-03-13T05:37:19.833Z,12.11
2023-03-13T05:40:47.878Z,12.05
2023-03-13T05:44:22.010Z,12.32
2023-03-13T05:47:33.070Z,12.67
2023-03-13T05:50:35.178Z,12.72
2023-03-13T05:53:54.881Z,12.54
2023-03-13T05:57:19.671Z,12.54
2023-03-13T06:00:50.676Z,12.58
2023-03-13T06:04:15.291Z,12.72
2023-03-13T06:07:17.940Z,12.83
2023-03-13T06:10:20.131Z,12.90
2023-03-13T06:13:22.182Z,12.72
2023-03-13T06:16:27.576Z,12.81
2023-03-13T06:19:33.454Z,12.86
2023-03-13T06:22:35.722Z,13.04
2023-03-13T06:25:39.089Z,13.22
2023-03-13T06:28:41.120Z,13.18
2023-03-13T06:31:43.766Z,13.19
2023-03-13T06:34:45.807Z,13.30
2023-03-13T06:37:48.061Z,13.31
2023-03-13T06:40:50.090Z,13.57
2023-03-13T06:43:52.166Z,13.74
2023-03-13T06:46:54.387Z,14.88
2023-03-13T06:49:56.408Z,16.31
2023-03-13T06:52:58.564Z,15.45
2023-03-13T06:56:02.107Z,15.05
2023-03-13T06:59:04.512Z,14.49
2023-03-13T07:02:07.128Z,14.72
2023-03-13T07:05:09.336Z,15.00
2023-03-13T07:08:11.415Z,14.73
2023-03-13T07:11:16.170Z,14.53
2023-03-13T07:14:18.204Z,14.44
2023-03-13T07:17:21.215Z,14.18
2023-03-13T07:20:23.303Z,14.92
2023-03-13T07:23:27.652Z,15.21
2023-03-13T07:26:29.806Z,14.77
2023-03-13T07:29:32.023Z,14.22
2023-03-13T07:32:34.301Z,14.08
2023-03-13T07:35:39.205Z,14.21
2023-03-13T07:38:44.026Z,14.57
2023-03-13T07:41:46.797Z,14.89
2023-03-13T07:44:53.272Z,15.01
2023-03-13T07:47:55.782Z,15.08
2023-03-13T07:50:58.926Z,15.15
2023-03-13T07:54:01.750Z,15.21
2023-03-13T07:57:04.304Z,15.31
2023-03-13T08:00:10.772Z,15.37
2023-03-13T08:03:15.852Z,15.41
2023-03-13T08:06:23.991Z,15.45
2023-03-13T08:09:26.202Z,15.40
2023-03-13T08:12:28.283Z,15.40
2023-03-13T08:15:30.801Z,15.39
2023-03-13T08:18:35.125Z,15.37
2023-03-13T08:21:40.495Z,15.30
2023-03-13T08:24:42.517Z,15.27
2023-03-13T08:27:44.585Z,15.27
2023-03-13T08:30:47.011Z,15.44
2023-03-13T08:33:49.673Z,15.45
2023-03-13T08:36:53.048Z,15.42
2023-03-13T08:39:57.613Z,15.48
2023-03-13T08:42:59.968Z,15.60
2023-03-13T08:46:02.129Z,15.51
2023-03-13T08:49:07.147Z,15.52
2023-03-13T08:52:09.549Z,15.46
2023-03-13T08:55:12.158Z,15.67
2023-03-13T08:58:14.801Z,15.69
2023-03-13T09:01:17.028Z,15.63
2023-03-13T09:04:19.593Z,15.50
2023-03-13T09:07:21.624Z,15.55
2023-03-13T09:10:24.321Z,15.74
2023-03-13T09:13:27.722Z,15.80
2023-03-13T09:16:32.464Z,15.76
2023-03-13T09:19:34.524Z,15.66
2023-03-13T09:22:36.617Z,15.86
2023-03-13T09:25:39.469Z,15.94
2023-03-13T09:28:44.446Z,15.89
2023-03-13T09:31:47.787Z,15.88
2023-03-13T09:34:49.951Z,15.93
2023-03-13T09:37:52.226Z,16.03
2023-03-13T09:41:05.622Z,16.16
2023-03-13T09:44:31.324Z,16.06
2023-03-13T09:47:46.657Z,16.15
2023-03-13T09:51:05.545Z,16.14
2023-03-13T09:54:45.866Z,16.26
2023-03-13T09:57:55.932Z,16.28
2023-03-13T10:01:02.726Z,16.28
2023-03-13T10:04:17.962Z,16.22
2023-03-13T10:07:21.449Z,16.43
2023-03-13T10:10:40.604Z,16.57
2023-03-13T10:13:47.223Z,16.73
2023-03-13T10:17:13.999Z,16.74
2023-03-13T10:20:34.025Z,16.79
2023-03-13T10:23:44.296Z,16.88
2023-03-13T10:26:50.035Z,16.90
2023-03-13T10:29:53.179Z,16.85
2023-03-13T10:33:21.492Z,16.77
2023-03-13T10:36:23.938Z,16.67
2023-03-13T10:39:32.292Z,16.72
2023-03-13T10:42:40.618Z,16.73
2023-03-13T10:45:42.791Z,16.73
2023-03-13T10:48:48.450Z,16.63
2023-03-13T10:51:54.536Z,16.68
2023-03-13T10:55:02.332Z,16.77
2023-03-13T10:58:06.262Z,16.79
2023-03-13T11:01:22.879Z,16.82
2023-03-13T11:04:33.680Z,16.86
2023-03-13T11:07:38.480Z,16.94
2023-03-13T11:10:54.900Z,16.89
2023-03-13T11:14:26.550Z,16.90
2023-03-13T11:17:40.754Z,16.91
2023-03-13T11:20:45.899Z,16.84
2023-03-13T11:24:01.954Z,16.80
2023-03-13T11:27:26.707Z,16.70
2023-03-13T11:30:46.788Z,16.82
2023-03-13T11:33:58.985Z,16.82
2023-03-13T11:37:09.883Z,16.78
2023-03-13T11:40:22.742Z,16.78
2023-03-13T11:43:45.478Z,16.75
2023-03-13T11:47:29.954Z,16.90
2023-03-13T11:51:01.178Z,17.07
2023-03-13T11:54:15.399Z,17.17
2023-03-13T11:57:31.152Z,17.18
2023-03-13T12:00:56.778Z,17.11
2023-03-13T12:04:13.039Z,17.13
2023-03-13T12:07:41.675Z,17.41
2023-03-13T12:10:57.901Z,17.43
2023-03-13T12:14:02.541Z,17.46
2023-03-13T12:17:13.233Z,17.44
2023-03-13T12:20:25.678Z,17.38
2023-03-13T12:23:46.657Z,17.35
2023-03-13T12:27:32.795Z,17.53
2023-03-13T12:30:45.578Z,17.50
2023-03-13T12:34:25.080Z,17.46
2023-03-13T12:37:42.337Z,17.33
2023-03-13T12:40:56.616Z,17.38
2023-03-13T12:44:09.119Z,17.31
2023-03-13T12:47:33.481Z,17.34
2023-03-13T12:51:04.765Z,17.37
2023-03-13T12:54:25.056Z,17.52
2023-03-13T12:58:04.774Z,17.66
2023-03-13T13:01:08.832Z,17.71
2023-03-13T13:04:33.987Z,17.78
2023-03-13T13:07:38.670Z,17.88
2023-03-13T13:10:42.130Z,17.91
2023-03-13T13:13:44.339Z,17.90
2023-03-13T13:17:16.219Z,17.86
2023-03-13T13:20:38.865Z,17.70
2023-03-13T13:23:48.397Z,17.74
2023-03-13T13:26:50.961Z,17.86
2023-03-13T13:29:55.617Z,17.94
2023-03-13T13:33:29.177Z,17.87
2023-03-13T13:36:40.443Z,17.82
2023-03-13T13:39:52.805Z,17.85
2023-03-13T13:43:00.087Z,17.87
2023-03-13T13:46:06.647Z,17.91
2023-03-13T13:49:16.437Z,17.83
2023-03-13T13:52:31.035Z,17.94
2023-03-13T13:55:44.815Z,17.93
2023-03-13T13:58:47.509Z,17.73
2023-03-13T14:02:11.130Z,17.41
2023-03-13T14:05:28.746Z,17.13
2023-03-13T14:08:36.894Z,17.05
2023-03-13T14:11:39.825Z,16.93
2023-03-13T14:14:41.962Z,16.88
2023-03-13T14:17:47.869Z,16.83
2023-03-13T14:20:49.800Z,16.88
2023-03-13T14:23:52.388Z,16.86
2023-03-13T14:26:57.934Z,16.83
2023-03-13T14:30:11.598Z,16.88
2023-03-13T14:33:13.891Z,16.92
2023-03-13T14:36:16.250Z,16.79
2023-03-13T14:39:49.169Z,16.80
2023-03-13T14:42:54.891Z,16.72
2023-03-13T14:45:57.805Z,16.72
2023-03-13T14:49:13.921Z,16.68
2023-03-13T14:52:26.889Z,16.65
2023-03-13T14:55:33.000Z,16.68
2023-03-13T14:58:35.856Z,16.50
2023-03-13T15:01:37.966Z,16.64
2023-03-13T15:04:49.726Z,16.63
2023-03-13T15:07:55.265Z,16.69
2023-03-13T15:10:58.289Z,16.69
2023-03-13T15:14:01.610Z,16.66
2023-03-13T15:17:06.995Z,16.65
2023-03-13T15:20:13.243Z,16.62
2023-03-13T15:23:15.561Z,16.59
2023-03-13T15:26:17.958Z,16.54
2023-03-13T15:29:20.745Z,16.51
2023-03-13T15:32:30.551Z,16.44
2023-03-13T15:35:33.990Z,16.40
2023-03-13T15:38:36.839Z,16.36
2023-03-13T15:41:39.953Z,16.35
2023-03-13T15:44:42.314Z,16.37
2023-03-13T15:47:45.450Z,16.39
2023-03-13T15:51:01.767Z,16.31
2023-03-13T15:54:03.937Z,16.34
2023-03-13T15:57:06.096Z,16.26
2023-03-13T16:00:24.620Z,16.22
2023-03-13T16:03:29.067Z,16.26
2023-03-13T16:06:31.661Z,16.25
2023-03-13T16:09:33.820Z,16.16
2023-03-13T16:12:35.852Z,16.14
2023-03-13T16:15:38.769Z,16.17
2023-03-13T16:18:40.872Z,16.16
2023-03-13T16:21:48.412Z,16.06
2023-03-13T16:24:50.564Z,16.05
2023-03-13T16:27:56.421Z,16.01
2023-03-13T16:30:58.557Z,15.99
2023-03-13T16:34:01.194Z,15.85
2023-03-13T16:37:13.641Z,15.91
2023-03-13T16:40:18.795Z,15.88
2023-03-13T16:43:20.896Z,15.84
2023-03-13T16:46:32.492Z,15.80
2023-03-13T16:49:35.043Z,15.74
2023-03-13T16:52:37.163Z,15.71
2023-03-13T16:55:39.119Z,15.73
2023-03-13T16:58:41.063Z,15.65
2023-03-13T17:01:43.162Z,15.70
2023-03-13T17:04:46.549Z,15.64
2023-03-13T17:07:50.659Z,15.64
2023-03-13T17:10:52.954Z,15.64
2023-03-13T17:13:56.060Z,15.65
2023-03-13T17:16:58.165Z,15.66
2023-03-13T17:20:00.291Z,15.53
2023-03-13T17:23:02.440Z,15.59
2023-03-13T17:26:06.169Z,15.96
2023-03-13T17:29:17.085Z,16.15
2023-03-13T17:32:19.352Z,16.38
2023-03-13T17:35:23.076Z,17.89
2023-03-13T17:38:25.252Z,19.26
2023-03-13T17:41:30.373Z,20.14
2023-03-13T17:44:32.461Z,20.86
2023-03-13T17:47:34.989Z,21.31
2023-03-13T17:50:36.983Z,21.18
2023-03-13T17:53:38.980Z,20.60
2023-03-13T17:56:41.292Z,20.05
2023-03-13T17:59:45.293Z,19.67
2023-03-13T18:02:47.770Z,19.50
2023-03-13T18:05:51.976Z,19.22
2023-03-13T18:09:03.817Z,19.15
2023-03-13T18:12:06.080Z,18.91
2023-03-13T18:15:11.238Z,18.72
2023-03-13T18:18:17.550Z,18.61
2023-03-13T18:21:21.630Z,18.42
2023-03-13T18:24:23.919Z,18.39
2023-03-13T18:27:26.029Z,18.27
2023-03-13T18:30:28.287Z,18.17
2023-03-13T18:33:30.342Z,18.05
2023-03-13T18:36:32.497Z,18.00
2023-03-13T18:39:34.483Z,17.84
2023-03-13T18:42:36.434Z,17.81
2023-03-13T18:45:39.807Z,17.75
2023-03-13T18:48:43.374Z,17.69
2023-03-13T18:51:45.382Z,17.53
2023-03-13T18:54:47.377Z,17.55
2023-03-13T18:57:49.523Z,17.45
2023-03-13T19:00:51.652Z,17.27
2023-03-13T19:03:53.798Z,17.18
2023-03-13T19:06:55.835Z,17.15
2023-03-13T19:09:57.871Z,17.13
2023-03-13T19:12:59.944Z,17.04
2023-03-13T19:16:01.977Z,17.00
2023-03-13T19:19:18.012Z,16.90
2023-03-13T19:22:20.090Z,16.78
2023-03-13T19:25:22.555Z,16.69
2023-03-13T19:28:24.661Z,16.60
2023-03-13T19:31:27.069Z,16.54
2023-03-13T19:34:29.187Z,16.50
2023-03-13T19:37:31.430Z,16.47
2023-03-13T19:40:33.742Z,16.42
2023-03-13T19:43:37.383Z,16.45
2023-03-13T19:46:43.427Z,16.41
2023-03-13T19:49:49.821Z,16.39
2023-03-13T19:52:52.317Z,16.41
2023-03-13T19:55:54.444Z,16.28
2023-03-13T19:59:07.568Z,16.32
2023-03-13T20:02:11.647Z,16.26
2023-03-13T20:05:13.806Z,16.16
2023-03-13T20:08:18.863Z,16.13
2023-03-13T20:11:21.359Z,16.15
2023-03-13T20:14:24.704Z,16.19
2023-03-13T20:17:26.777Z,16.15
2023-03-13T20:20:28.905Z,16.17
2023-03-13T20:23:30.996Z,16.20
2023-03-13T20:26:33.034Z,16.18
2023-03-13T20:29:35.124Z,16.13
2023-03-13T20:32:39.435Z,16.08
2023-03-13T20:35:48.308Z,16.00
2023-03-13T20:38:50.382Z,15.93
2023-03-13T20:41:54.827Z,15.92
2023-03-13T20:44:56.826Z,15.88
2023-03-13T20:47:59.149Z,15.77
2023-03-13T20:51:02.239Z,15.81
2023-03-13T20:54:04.608Z,15.86
2023-03-13T20:57:08.663Z,15.89
2023-03-13T21:00:13.021Z,15.91
2023-03-13T21:03:15.455Z,15.73
2023-03-13T21:06:18.585Z,15.75
2023-03-13T21:09:21.733Z,15.71
2023-03-13T21:12:23.872Z,15.53
2023-03-13T21:15:25.844Z,15.44
2023-03-13T21:18:29.258Z,15.18
2023-03-13T21:21:31.371Z,15.14
2023-03-13T21:24:33.448Z,15.08
2023-03-13T21:27:35.995Z,15.00
2023-03-13T21:30:38.045Z,14.99
2023-03-13T21:33:41.296Z,14.93
2023-03-13T21:36:43.348Z,14.95
2023-03-13T21:39:45.658Z,14.90
2023-03-13T21:42:47.691Z,14.90
2023-03-13T21:45:49.734Z,14.81
2023-03-13T21:48:51.853Z,14.99
2023-03-13T21:51:56.332Z,14.86
2023-03-13T21:54:58.996Z,14.98
2023-03-13T21:58:01.306Z,14.92
2023-03-13T22:01:03.650Z,14.89
2023-03-13T22:04:05.754Z,14.90
2023-03-13T22:07:08.287Z,14.80
2023-03-13T22:10:11.007Z,14.86
2023-03-13T22:13:13.672Z,14.92
2023-03-13T22:16:15.858Z,15.01
2023-03-13T22:19:18.058Z,15.11
2023-03-13T22:22:22.164Z,15.23
2023-03-13T22:25:24.797Z,15.31
2023-03-13T22:28:27.296Z,15.44
2023-03-13T22:31:30.966Z,15.53
2023-03-13T22:34:33.140Z,15.62
2023-03-13T22:37:35.432Z,15.61
2023-03-13T22:40:38.048Z,15.64
2023-03-13T22:43:40.421Z,15.91
2023-03-13T22:46:43.357Z,16.11
2023-03-13T22:49:45.546Z,16.04
2023-03-13T22:52:47.624Z,16.01
2023-03-13T22:55:49.571Z,15.86
2023-03-13T22:58:51.652Z,15.72
2023-03-13T23:01:53.631Z,15.62
2023-03-13T23:04:57.973Z,15.65
2023-03-13T23:07:59.959Z,15.73
2023-03-13T23:11:05.509Z,15.64
2023-03-13T23:14:07.669Z,15.64
2023-03-13T23:17:09.832Z,15.61
2023-03-13T23:20:13.473Z,15.60
2023-03-13T23:23:15.594Z,15.52
2023-03-13T23:26:18.471Z,15.54
2023-03-13T23:29:20.459Z,15.67
2023-03-13T23:32:23.046Z,15.74
2023-03-13T23:35:25.119Z,15.78
2023-03-13T23:38:27.229Z,15.80
2023-03-13T23:41:29.261Z,15.89
2023-03-13T23:44:31.709Z,15.85
2023-03-13T23:47:34.226Z,16.04
2023-03-13T23:50:36.606Z,16.03
2023-03-13T23:53:40.668Z,16.14
2023-03-13T23:56:42.888Z,16.07
2023-03-13T23:59:44.952Z,16.36
